createdAt,value
2019-01-18T00:00:08.751Z,98.53
2019-01-18T00:01:08.725Z,98.49
2019-01-18T00:02:08.722Z,98.59
2019-01-18T00:03:08.716Z,98.53
2019-01-18T00:04:08.692Z,98.59
2019-01-18T00:05:08.711Z,98.59
2019-01-18T00:06:08.681Z,98.53
2019-01-18T00:07:08.651Z,98.59
2019-01-18T00:08:08.663Z,98.90
2019-01-18T00:09:08.656Z,99.01
2019-01-18T00:10:08.637Z,99.22
2019-01-18T00:11:08.605Z,99.22
2019-01-18T00:12:08.610Z,99.01
2019-01-18T00:13:08.591Z,99.22
2019-01-18T00:14:08.592Z,99.32
2019-01-18T00:15:08.574Z,99.63
2019-01-18T00:16:08.552Z,99.32
2019-01-18T00:17:08.542Z,99.95
2019-01-18T00:18:08.538Z,99.22
2019-01-18T00:19:08.533Z,98.90
2019-01-18T00:20:08.516Z,99.32
2019-01-18T00:21:08.501Z,99.95
2019-01-18T00:22:08.494Z,99.99
2019-01-18T00:23:08.477Z,99.43
2019-01-18T00:24:08.483Z,99.95
2019-01-18T00:25:08.471Z,99.11
2019-01-18T00:26:08.437Z,99.01
2019-01-18T00:27:08.437Z,99.22
2019-01-18T00:28:08.428Z,99.01
2019-01-18T00:29:08.424Z,99.01
2019-01-18T00:30:08.404Z,99.11
2019-01-18T00:31:08.412Z,98.90
2019-01-18T00:32:08.386Z,99.11
2019-01-18T00:33:08.395Z,99.01
2019-01-18T00:34:08.384Z,99.32
2019-01-18T00:35:08.364Z,98.90
2019-01-18T00:36:08.350Z,98.80
2019-01-18T00:37:08.362Z,99.99
2019-01-18T00:38:08.322Z,99.32
2019-01-18T00:39:08.326Z,98.80
2019-01-18T00:40:08.347Z,99.11
2019-01-18T00:41:08.281Z,99.01
2019-01-18T00:42:08.267Z,99.01
2019-01-18T00:43:08.285Z,99.01
2019-01-18T00:44:08.285Z,98.80
2019-01-18T00:45:08.274Z,99.22
2019-01-18T00:46:08.251Z,99.01
2019-01-18T00:47:08.237Z,99.11
2019-01-18T00:48:08.241Z,98.80
2019-01-18T00:49:08.208Z,98.90
2019-01-18T00:50:08.337Z,99.01
2019-01-18T00:51:08.190Z,99.07
2019-01-18T00:52:08.170Z,98.96
2019-01-18T00:53:08.152Z,99.01
2019-01-18T00:54:08.168Z,98.90
2019-01-18T00:55:08.130Z,99.01
2019-01-18T00:56:08.118Z,99.01
2019-01-18T00:57:08.107Z,99.11
2019-01-18T00:58:08.096Z,99.32
2019-01-18T00:59:08.109Z,99.01
2019-01-18T01:00:08.087Z,98.90
2019-01-18T01:01:08.072Z,99.32
2019-01-18T01:02:08.062Z,99.32
2019-01-18T01:03:08.055Z,99.99
2019-01-18T01:04:08.076Z,98.80
2019-01-18T01:05:08.046Z,99.22
2019-01-18T01:06:08.035Z,99.32
2019-01-18T01:07:08.018Z,98.90
2019-01-18T01:08:07.998Z,99.43
2019-01-18T01:09:07.995Z,99.95
2019-01-18T01:10:07.978Z,99.43
2019-01-18T01:11:07.971Z,99.53
2019-01-18T01:12:07.954Z,99.11
2019-01-18T01:13:07.971Z,99.43
2019-01-18T01:14:07.942Z,99.99
2019-01-18T01:15:07.974Z,99.63
2019-01-18T01:16:07.901Z,99.53
2019-01-18T01:17:07.895Z,99.74
2019-01-18T01:18:07.904Z,99.32
2019-01-18T01:19:07.883Z,99.22
2019-01-18T01:20:07.875Z,99.99
2019-01-18T01:21:07.848Z,99.89
2019-01-18T01:22:07.840Z,99.99
2019-01-18T01:23:07.836Z,99.99
2019-01-18T01:24:07.838Z,99.99
2019-01-18T01:25:07.829Z,99.99
2019-01-18T01:26:07.819Z,99.99
2019-01-18T01:27:07.784Z,99.89
2019-01-18T01:28:07.773Z,99.99
2019-01-18T01:29:07.809Z,99.99
2019-01-18T01:30:07.765Z,99.99
2019-01-18T01:31:07.755Z,99.99
2019-01-18T01:32:07.767Z,99.99
2019-01-18T01:33:07.718Z,99.99
2019-01-18T01:34:07.727Z,99.99
2019-01-18T01:35:07.711Z,99.93
2019-01-18T01:36:07.682Z,99.99
2019-01-18T01:37:07.684Z,99.99
2019-01-18T01:38:07.671Z,99.99
2019-01-18T01:39:07.657Z,99.93
2019-01-18T01:40:07.672Z,99.47
2019-01-18T01:41:07.638Z,99.41
2019-01-18T01:42:07.620Z,99.62
2019-01-18T01:43:07.609Z,99.89
2019-01-18T01:44:07.595Z,99.52
2019-01-18T01:45:07.612Z,99.73
2019-01-18T01:46:07.595Z,99.41
2019-01-18T01:47:07.568Z,99.83
2019-01-18T01:48:07.563Z,99.73
2019-01-18T01:50:16.865Z,99.73
2019-01-18T01:51:17.787Z,99.93
2019-01-18T01:52:17.788Z,99.83
2019-01-18T01:53:17.778Z,99.52
2019-01-18T01:54:17.759Z,99.62
2019-01-18T01:55:17.776Z,99.41
2019-01-18T01:56:17.765Z,99.99
2019-01-18T01:57:17.744Z,99.99
2019-01-18T01:58:17.741Z,99.83
2019-01-18T01:59:17.720Z,99.99
2019-01-18T02:00:17.719Z,99.99
2019-01-18T02:01:17.716Z,99.83
2019-01-18T02:02:17.713Z,99.93
2019-01-18T02:03:17.666Z,99.83
2019-01-18T02:04:17.667Z,99.83
2019-01-18T02:05:17.657Z,99.52
2019-01-18T02:06:17.634Z,99.52
2019-01-18T02:07:17.647Z,99.41
2019-01-18T02:08:17.623Z,99.93
2019-01-18T02:09:17.610Z,99.83
2019-01-18T02:10:17.611Z,99.52
2019-01-18T02:11:17.598Z,99.41
2019-01-18T02:12:17.586Z,99.73
2019-01-18T02:13:17.561Z,99.52
2019-01-18T02:14:17.554Z,99.93
2019-01-18T02:15:17.567Z,99.41
2019-01-18T02:16:17.599Z,99.83
2019-01-18T02:17:17.546Z,99.99
2019-01-18T02:18:17.536Z,99.31
2019-01-18T02:19:17.503Z,99.10
2019-01-18T02:20:17.499Z,99.93
2019-01-18T02:21:17.485Z,99.10
2019-01-18T02:22:17.472Z,99.99
2019-01-18T02:23:17.463Z,99.41
2019-01-18T02:24:17.452Z,99.20
2019-01-18T02:25:17.445Z,99.10
2019-01-18T02:26:17.435Z,99.10
2019-01-18T02:27:17.442Z,99.20
2019-01-18T02:28:17.411Z,99.10
2019-01-18T02:29:17.401Z,99.10
2019-01-18T02:30:17.424Z,98.79
2019-01-18T02:31:17.393Z,98.79
2019-01-18T02:32:17.380Z,98.68
2019-01-18T02:33:17.352Z,98.58
2019-01-18T02:34:17.337Z,98.58
2019-01-18T02:35:17.347Z,98.83
2019-01-18T02:36:17.337Z,98.79
2019-01-18T02:37:17.308Z,98.72
2019-01-18T02:38:17.301Z,99.04
2019-01-18T02:39:17.277Z,99.04
2019-01-18T02:40:17.285Z,99.15
2019-01-18T02:41:17.275Z,99.15
2019-01-18T02:42:17.271Z,99.35
2019-01-18T02:43:17.242Z,99.15
2019-01-18T02:44:17.227Z,99.15
2019-01-18T02:45:17.239Z,98.93
2019-01-18T02:46:17.212Z,99.46
2019-01-18T02:47:17.204Z,99.04
2019-01-18T02:48:17.202Z,99.56
2019-01-18T02:49:17.186Z,99.04
2019-01-18T02:50:17.199Z,99.56
2019-01-18T02:51:17.165Z,99.88
2019-01-18T02:52:17.150Z,99.46
2019-01-18T02:53:17.129Z,99.66
2019-01-18T02:54:17.116Z,99.66
2019-01-18T02:55:17.139Z,99.77
2019-01-18T02:56:17.103Z,99.98
2019-01-18T02:57:17.093Z,99.99
2019-01-18T02:58:17.080Z,99.99
2019-01-18T02:59:17.110Z,99.99
2019-01-18T03:00:17.087Z,99.99
2019-01-18T03:01:17.075Z,99.99
2019-01-18T03:02:17.031Z,99.99
2019-01-18T03:03:17.030Z,99.99
2019-01-18T03:04:17.014Z,99.99
2019-01-18T03:05:17.007Z,99.99
2019-01-18T03:06:16.989Z,99.99
2019-01-18T03:07:16.989Z,99.99
2019-01-18T03:08:16.991Z,99.99
2019-01-18T03:09:16.966Z,99.99
2019-01-18T03:10:16.953Z,99.99
2019-01-18T03:11:16.976Z,99.99
2019-01-18T03:12:16.935Z,99.99
2019-01-18T03:13:16.951Z,99.99
2019-01-18T03:14:16.907Z,99.99
2019-01-18T03:15:16.895Z,99.99
2019-01-18T03:16:16.893Z,99.99
2019-01-18T03:17:16.871Z,99.99
2019-01-18T03:18:16.867Z,99.99
2019-01-18T03:19:16.851Z,99.99
2019-01-18T03:20:16.852Z,99.99
2019-01-18T03:21:16.851Z,99.99
2019-01-18T03:22:16.830Z,99.99
2019-01-18T03:23:16.817Z,99.99
2019-01-18T03:24:16.822Z,99.99
2019-01-18T03:25:16.778Z,99.99
2019-01-18T03:26:16.808Z,99.99
2019-01-18T03:27:16.777Z,99.99
2019-01-18T03:28:16.758Z,99.99
2019-01-18T03:29:16.762Z,99.99
2019-01-18T03:30:18.596Z,99.99
2019-01-18T03:31:16.765Z,99.99
2019-01-18T03:32:16.736Z,99.99
2019-01-18T03:33:16.705Z,99.99
2019-01-18T03:34:16.686Z,99.99
2019-01-18T03:35:16.684Z,99.99
2019-01-18T03:36:16.679Z,99.99
2019-01-18T03:37:16.650Z,99.99
2019-01-18T03:38:16.652Z,99.99
2019-01-18T03:39:16.642Z,99.99
2019-01-18T03:40:16.632Z,99.99
2019-01-18T03:41:16.630Z,99.99
2019-01-18T03:42:16.619Z,99.99
2019-01-18T03:43:16.575Z,99.99
2019-01-18T03:44:16.572Z,99.99
2019-01-18T03:45:16.579Z,99.99
2019-01-18T03:46:16.555Z,99.99
2019-01-18T03:47:16.576Z,99.99
2019-01-18T03:48:16.530Z,99.99
2019-01-18T03:49:16.526Z,99.99
2019-01-18T03:53:32.772Z,99.99
2019-01-18T03:54:33.645Z,99.99
2019-01-18T03:55:33.624Z,99.99
2019-01-18T03:56:33.619Z,99.99
2019-01-18T03:57:33.642Z,99.99
2019-01-18T03:58:33.625Z,99.99
2019-01-18T03:59:33.576Z,99.99
2019-01-18T04:00:33.562Z,99.99
2019-01-18T04:01:33.564Z,99.99
2019-01-18T04:02:33.539Z,99.99
2019-01-18T04:03:33.551Z,99.99
2019-01-18T04:04:33.521Z,99.99
2019-01-18T04:05:33.504Z,99.99
2019-01-18T04:06:33.498Z,99.99
2019-01-18T04:07:33.493Z,99.99
2019-01-18T04:08:33.498Z,99.99
2019-01-18T04:09:33.506Z,99.99
2019-01-18T04:10:33.456Z,99.99
2019-01-18T04:11:33.443Z,99.99
2019-01-18T04:12:33.451Z,99.99
2019-01-18T04:13:33.449Z,99.99
2019-01-18T04:14:33.426Z,99.99
2019-01-18T04:15:33.412Z,99.99
2019-01-18T04:16:33.384Z,99.99
2019-01-18T04:17:33.398Z,99.99
2019-01-18T04:18:33.385Z,99.99
2019-01-18T04:19:33.365Z,99.99
2019-01-18T04:20:33.346Z,99.99
2019-01-18T04:21:33.349Z,99.99
2019-01-18T04:22:33.331Z,99.99
2019-01-18T04:23:33.325Z,99.99
2019-01-18T04:24:33.307Z,99.99
2019-01-18T04:25:33.293Z,99.99
2019-01-18T04:26:33.266Z,99.99
2019-01-18T04:27:33.300Z,99.99
2019-01-18T04:28:33.292Z,99.99
2019-01-18T04:29:33.248Z,99.99
2019-01-18T04:30:33.871Z,99.99
2019-01-18T04:31:33.223Z,99.99
2019-01-18T04:32:33.211Z,99.99
2019-01-18T04:33:33.217Z,99.99
2019-01-18T04:34:33.191Z,99.99
2019-01-18T04:35:33.199Z,99.99
2019-01-18T04:36:33.158Z,99.99
2019-01-18T04:37:33.159Z,99.99
2019-01-18T04:38:33.152Z,99.99
2019-01-18T04:39:33.151Z,99.99
2019-01-18T04:40:33.125Z,99.99
2019-01-18T04:41:33.123Z,99.99
2019-01-18T04:42:33.140Z,99.99
2019-01-18T04:43:33.103Z,99.99
2019-01-18T04:44:33.087Z,99.99
2019-01-18T04:45:33.070Z,99.99
2019-01-18T04:46:33.053Z,99.99
2019-01-18T04:47:33.039Z,99.99
2019-01-18T04:48:33.049Z,99.99
2019-01-18T04:49:33.037Z,99.99
2019-01-18T04:50:33.002Z,99.99
2019-01-18T04:51:33.011Z,99.99
2019-01-18T04:52:33.001Z,99.99
2019-01-18T04:53:32.973Z,99.99
2019-01-18T04:54:33.010Z,99.99
2019-01-18T04:55:32.976Z,99.99
2019-01-18T04:56:32.946Z,99.99
2019-01-18T04:57:32.949Z,99.99
2019-01-18T04:58:32.928Z,99.99
2019-01-18T04:59:32.916Z,99.99
2019-01-18T05:00:32.892Z,99.99
2019-01-18T05:01:32.890Z,99.99
2019-01-18T05:02:32.894Z,99.99
2019-01-18T05:03:32.857Z,99.99
2019-01-18T05:04:32.872Z,99.99
2019-01-18T05:05:32.857Z,99.99
2019-01-18T05:06:32.837Z,99.99
2019-01-18T05:07:32.834Z,99.99
2019-01-18T05:08:32.810Z,99.99
2019-01-18T05:09:32.808Z,99.99
2019-01-18T05:10:32.779Z,99.99
2019-01-18T05:11:32.775Z,99.99
2019-01-18T05:12:32.774Z,99.99
2019-01-18T05:13:32.743Z,99.99
2019-01-18T05:14:32.754Z,99.99
2019-01-18T05:15:32.724Z,99.99
2019-01-18T05:16:32.726Z,99.99
2019-01-18T05:17:32.709Z,99.99
2019-01-18T05:18:32.711Z,99.99
2019-01-18T05:19:32.689Z,99.99
2019-01-18T05:20:32.680Z,99.99
2019-01-18T05:21:32.659Z,99.99
2019-01-18T05:22:32.666Z,99.99
2019-01-18T05:23:32.639Z,99.99
2019-01-18T05:24:32.648Z,99.99
2019-01-18T05:25:32.630Z,99.99
2019-01-18T05:26:32.620Z,99.99
2019-01-18T05:27:32.587Z,99.99
2019-01-18T05:28:32.573Z,99.99
2019-01-18T05:29:32.587Z,99.99
2019-01-18T05:30:32.567Z,99.99
2019-01-18T05:31:32.561Z,99.99
2019-01-18T05:32:32.536Z,99.99
2019-01-18T05:33:32.525Z,99.99
2019-01-18T05:34:32.524Z,99.99
2019-01-18T05:35:32.500Z,99.99
2019-01-18T05:36:32.480Z,99.99
2019-01-18T05:37:32.479Z,99.99
2019-01-18T05:38:32.461Z,99.99
2019-01-18T05:39:32.470Z,99.99
2019-01-18T05:40:32.457Z,99.99
2019-01-18T05:41:32.427Z,99.99
2019-01-18T05:42:32.411Z,99.99
2019-01-18T05:43:32.562Z,99.99
2019-01-18T05:44:32.406Z,99.99
2019-01-18T05:45:32.395Z,99.99
2019-01-18T05:46:32.404Z,99.99
2019-01-18T05:47:32.375Z,99.99
2019-01-18T05:48:32.374Z,99.99
2019-01-18T05:49:32.369Z,99.99
2019-01-18T05:50:32.344Z,99.99
2019-01-18T05:51:32.327Z,99.99
2019-01-18T05:52:32.595Z,99.99
2019-01-18T05:55:28.049Z,99.99
2019-01-18T05:56:29.020Z,99.99
2019-01-18T05:57:29.008Z,99.99
2019-01-18T05:58:28.996Z,99.99
2019-01-18T05:59:28.989Z,99.99
2019-01-18T06:00:29.003Z,99.99
2019-01-18T06:01:29.235Z,99.99
2019-01-18T06:02:28.964Z,99.99
2019-01-18T06:03:28.961Z,99.99
2019-01-18T06:04:28.936Z,99.99
2019-01-18T06:05:28.928Z,99.99
2019-01-18T06:06:28.917Z,99.99
2019-01-18T06:07:28.916Z,99.99
2019-01-18T06:08:28.915Z,99.99
2019-01-18T06:09:28.901Z,99.99
2019-01-18T06:10:28.886Z,99.99
2019-01-18T06:11:28.875Z,99.99
2019-01-18T06:12:28.860Z,99.99
2019-01-18T06:13:28.842Z,99.99
2019-01-18T06:14:28.843Z,99.99
2019-01-18T06:15:28.829Z,99.99
2019-01-18T06:16:28.831Z,99.99
2019-01-18T06:17:28.801Z,99.99
2019-01-18T06:18:28.786Z,99.99
2019-01-18T06:19:28.788Z,99.99
2019-01-18T06:20:28.781Z,99.99
2019-01-18T06:21:28.761Z,99.99
2019-01-18T06:29:58.093Z,99.99
2019-01-18T06:31:01.829Z,99.99
2019-01-18T06:31:59.018Z,99.99
2019-01-18T06:37:24.351Z,99.99
2019-01-18T06:39:31.902Z,99.99
2019-01-18T06:40:32.891Z,99.99
2019-01-18T06:41:32.934Z,99.99
2019-01-18T06:42:32.885Z,99.99
2019-01-18T06:43:54.111Z,99.99
2019-01-18T06:44:32.921Z,99.99
2019-01-18T06:45:33.673Z,99.99
2019-01-18T06:46:32.921Z,99.99
2019-01-18T06:47:32.974Z,99.99
2019-01-18T06:48:32.872Z,99.99
2019-01-18T06:49:32.919Z,99.99
2019-01-18T06:50:32.794Z,99.99
2019-01-18T06:51:32.776Z,99.99
2019-01-18T06:52:32.834Z,99.99
2019-01-18T06:53:32.765Z,99.99
2019-01-18T06:54:32.776Z,99.99
2019-01-18T06:55:32.726Z,99.99
2019-01-18T06:56:32.790Z,99.99
2019-01-18T06:57:32.743Z,99.99
2019-01-18T06:58:32.713Z,99.99
2019-01-18T06:59:32.702Z,99.99
2019-01-18T07:00:32.692Z,99.99
2019-01-18T07:01:32.663Z,99.99
2019-01-18T07:02:32.683Z,99.99
2019-01-18T07:03:32.656Z,99.99
2019-01-18T07:04:32.643Z,99.99
2019-01-18T07:05:32.647Z,99.99
2019-01-18T07:06:32.611Z,99.99
2019-01-18T07:07:32.621Z,99.99
2019-01-18T07:08:32.598Z,99.99
2019-01-18T07:09:32.577Z,99.99
2019-01-18T07:10:32.581Z,99.99
2019-01-18T07:11:32.580Z,99.99
2019-01-18T07:12:32.569Z,99.99
2019-01-18T07:13:32.555Z,99.99
2019-01-18T07:14:32.533Z,99.99
2019-01-18T07:15:32.517Z,99.99
2019-01-18T07:16:32.518Z,99.99
2019-01-18T07:17:32.535Z,99.99
2019-01-18T07:18:32.484Z,99.99
2019-01-18T07:19:32.487Z,99.99
2019-01-18T07:20:32.468Z,99.99
2019-01-18T07:21:32.477Z,99.99
2019-01-18T07:22:32.463Z,99.99
2019-01-18T07:23:32.440Z,99.99
2019-01-18T07:24:32.426Z,99.99
2019-01-18T07:25:32.422Z,99.99
2019-01-18T07:26:32.403Z,99.99
2019-01-18T07:27:32.420Z,99.99
2019-01-18T07:28:32.417Z,99.99
2019-01-18T07:29:32.386Z,99.99
2019-01-18T07:30:32.364Z,99.99
2019-01-18T07:31:32.385Z,99.99
2019-01-18T07:32:32.358Z,99.99
2019-01-18T07:33:32.340Z,99.99
2019-01-18T07:34:32.349Z,99.99
2019-01-18T07:35:32.320Z,99.99
2019-01-18T07:36:32.297Z,99.99
2019-01-18T07:37:32.319Z,99.99
2019-01-18T07:38:32.277Z,99.99
2019-01-18T07:39:32.529Z,99.99
2019-01-18T07:40:32.339Z,99.99
2019-01-18T07:41:32.240Z,99.99
2019-01-18T07:42:32.256Z,99.99
2019-01-18T07:43:32.246Z,99.99
2019-01-18T07:44:32.214Z,99.99
2019-01-18T07:45:32.212Z,99.99
2019-01-18T07:46:32.238Z,99.99
2019-01-18T07:47:32.194Z,99.99
2019-01-18T07:48:32.175Z,99.99
2019-01-18T07:49:32.179Z,99.99
2019-01-18T07:50:32.173Z,99.99
2019-01-18T07:51:32.133Z,99.99
2019-01-18T07:52:32.667Z,99.99
2019-01-18T07:53:32.125Z,99.99
2019-01-18T07:54:32.102Z,99.99
2019-01-18T07:55:32.102Z,99.99
2019-01-18T07:56:32.084Z,99.99
2019-01-18T07:57:32.083Z,99.99
2019-01-18T07:58:32.092Z,99.99
2019-01-18T07:59:32.050Z,99.99
2019-01-18T08:00:32.037Z,99.99
2019-01-18T08:01:32.069Z,99.99
2019-01-18T08:02:32.013Z,99.99
2019-01-18T08:03:32.003Z,99.99
2019-01-18T08:04:31.989Z,99.99
2019-01-18T08:05:32.002Z,99.99
2019-01-18T08:06:31.953Z,99.99
2019-01-18T08:07:31.957Z,99.99
2019-01-18T08:08:31.981Z,99.99
2019-01-18T08:09:31.937Z,99.99
2019-01-18T08:10:31.941Z,99.99
2019-01-18T08:11:31.900Z,99.99
2019-01-18T08:12:31.893Z,99.99
2019-01-18T08:13:31.914Z,99.99
2019-01-18T08:14:31.868Z,99.99
2019-01-18T08:15:31.874Z,99.99
2019-01-18T08:16:31.843Z,99.99
2019-01-18T08:17:31.844Z,99.99
2019-01-18T08:18:31.853Z,99.99
2019-01-18T08:19:31.893Z,99.99
2019-01-18T08:20:32.821Z,99.99
2019-01-18T08:21:31.792Z,99.99
2019-01-18T08:22:31.780Z,99.99
2019-01-18T08:23:31.820Z,99.99
2019-01-18T08:24:31.760Z,99.99
2019-01-18T08:25:31.752Z,99.99
2019-01-18T08:26:31.737Z,99.99
2019-01-18T08:27:31.722Z,99.99
2019-01-18T08:28:31.746Z,99.99
2019-01-18T08:29:31.722Z,99.99
2019-01-18T08:30:31.702Z,99.99
2019-01-18T08:31:31.695Z,99.99
2019-01-18T08:32:31.679Z,99.99
2019-01-18T08:33:31.687Z,99.99
2019-01-18T08:34:31.669Z,99.99
2019-01-18T08:35:31.666Z,99.99
2019-01-18T08:36:31.653Z,99.99
2019-01-18T08:37:31.732Z,99.99
2019-01-18T08:38:31.732Z,99.99
2019-01-18T08:40:52.082Z,99.99
2019-01-18T08:41:52.582Z,99.99
2019-01-18T08:42:52.554Z,99.99
2019-01-18T08:43:52.642Z,99.99
2019-01-18T08:44:52.583Z,99.99
2019-01-18T08:45:52.538Z,99.99
2019-01-18T08:46:52.518Z,99.99
2019-01-18T08:47:52.554Z,99.99
2019-01-18T08:48:52.525Z,99.99
2019-01-18T08:49:52.541Z,99.99
2019-01-18T08:50:52.477Z,99.99
2019-01-18T08:51:52.465Z,99.99
2019-01-18T08:52:52.450Z,99.99
2019-01-18T08:53:52.455Z,99.99
2019-01-18T08:54:52.449Z,99.99
2019-01-18T08:55:52.437Z,99.99
2019-01-18T08:56:52.407Z,99.99
2019-01-18T08:57:52.464Z,99.99
2019-01-18T08:58:52.514Z,99.99
2019-01-18T08:59:52.376Z,99.99
2019-01-18T09:00:52.368Z,99.99
2019-01-18T09:01:52.358Z,99.99
2019-01-18T09:02:52.352Z,99.99
2019-01-18T09:03:52.346Z,99.99
2019-01-18T09:04:52.323Z,99.99
2019-01-18T09:05:52.317Z,99.99
2019-01-18T09:06:52.293Z,99.99
2019-01-18T09:07:52.295Z,99.99
2019-01-18T09:08:52.297Z,99.99
2019-01-18T09:09:52.271Z,99.99
2019-01-18T09:10:52.257Z,99.99
2019-01-18T09:11:52.241Z,99.99
2019-01-18T09:12:52.243Z,99.99
2019-01-18T09:13:52.249Z,99.99
2019-01-18T09:14:52.220Z,99.99
2019-01-18T09:15:52.231Z,99.99
2019-01-18T09:16:52.188Z,99.99
2019-01-18T09:17:52.183Z,99.99
2019-01-18T09:18:52.298Z,99.99
2019-01-18T09:19:52.172Z,99.99
2019-01-18T09:20:52.211Z,99.99
2019-01-18T09:21:52.258Z,99.99
2019-01-18T09:22:52.121Z,99.99
2019-01-18T09:23:52.139Z,99.99
2019-01-18T09:24:52.106Z,99.99
2019-01-18T09:25:52.124Z,99.99
2019-01-18T09:26:52.134Z,99.99
2019-01-18T09:27:52.106Z,99.99
2019-01-18T09:28:52.096Z,99.99
2019-01-18T09:29:52.361Z,99.99
2019-01-18T09:30:52.052Z,99.99
2019-01-18T09:31:52.265Z,99.99
2019-01-18T09:32:52.021Z,99.99
2019-01-18T09:33:52.012Z,99.99
2019-01-18T09:34:52.066Z,99.88
2019-01-18T09:35:51.990Z,99.88
2019-01-18T09:36:51.985Z,99.56
2019-01-18T09:37:51.967Z,99.88
2019-01-18T09:38:51.962Z,99.77
2019-01-18T09:39:52.269Z,99.66
2019-01-18T09:40:51.974Z,99.35
2019-01-18T09:41:51.932Z,99.15
2019-01-18T09:42:51.920Z,99.04
2019-01-18T09:43:51.908Z,98.52
2019-01-18T09:44:51.912Z,98.37
2019-01-18T09:45:51.912Z,98.16
2019-01-18T09:46:51.890Z,98.26
2019-01-18T09:47:51.978Z,97.64
2019-01-18T09:48:52.103Z,97.53
2019-01-18T09:49:51.854Z,97.95
2019-01-18T09:50:51.835Z,97.22
2019-01-18T09:51:51.822Z,97.17
2019-01-18T09:52:51.815Z,96.66
2019-01-18T09:53:51.805Z,96.86
2019-01-18T09:54:51.828Z,96.80
2019-01-18T09:55:52.547Z,95.82
2019-01-18T09:56:51.917Z,96.23
2019-01-18T09:57:51.783Z,95.92
2019-01-18T09:58:51.758Z,96.03
2019-01-18T09:59:51.854Z,96.40
2019-01-18T10:00:51.741Z,95.67
2019-01-18T10:01:51.718Z,95.98
2019-01-18T10:02:52.567Z,95.98
2019-01-18T10:03:51.699Z,95.67
2019-01-18T10:04:51.703Z,95.42
2019-01-18T10:05:51.668Z,95.46
2019-01-18T10:06:51.752Z,94.79
2019-01-18T10:07:51.650Z,94.21
2019-01-18T10:08:52.565Z,93.75
2019-01-18T10:09:51.656Z,93.85
2019-01-18T10:10:51.647Z,93.33
2019-01-18T10:11:51.631Z,93.44
2019-01-18T10:12:51.599Z,93.65
2019-01-18T10:13:51.591Z,93.65
2019-01-18T10:14:51.604Z,92.91
2019-01-18T10:15:51.594Z,93.02
2019-01-18T10:16:51.813Z,93.02
2019-01-18T10:17:51.651Z,92.87
2019-01-18T10:18:51.613Z,93.29
2019-01-18T10:19:51.552Z,93.35
2019-01-18T10:20:51.540Z,93.18
2019-01-18T10:21:51.509Z,92.52
2019-01-18T10:22:51.503Z,92.52
2019-01-18T10:23:51.494Z,92.31
2019-01-18T10:24:51.506Z,92.72
2019-01-18T10:25:51.654Z,91.33
2019-01-18T10:26:51.439Z,90.16
2019-01-18T10:27:51.430Z,90.54
2019-01-18T10:28:51.441Z,91.68
2019-01-18T10:29:51.448Z,91.47
2019-01-18T10:30:51.409Z,91.68
2019-01-18T10:31:56.019Z,91.68
2019-01-18T10:32:51.381Z,91.47
2019-01-18T10:33:51.394Z,91.89
2019-01-18T10:34:51.383Z,91.58
2019-01-18T10:35:51.367Z,91.47
2019-01-18T10:36:51.344Z,91.47
2019-01-18T10:37:51.329Z,91.43
2019-01-18T10:38:51.332Z,90.75
2019-01-18T10:39:51.332Z,90.44
2019-01-18T10:42:02.247Z,90.44
2019-01-18T10:43:02.646Z,89.81
2019-01-18T10:44:06.133Z,90.12
2019-01-18T10:45:02.641Z,90.64
2019-01-18T10:46:02.642Z,90.85
2019-01-18T10:47:02.604Z,90.44
2019-01-18T10:48:02.610Z,90.39
2019-01-18T10:49:02.601Z,89.62
2019-01-18T10:50:02.598Z,89.35
2019-01-18T10:51:02.576Z,88.62
2019-01-18T10:52:02.644Z,88.62
2019-01-18T10:53:02.735Z,89.35
2019-01-18T10:54:02.556Z,89.41
2019-01-18T10:55:03.454Z,88.06
2019-01-18T10:56:02.528Z,87.96
2019-01-18T10:57:02.521Z,88.33
2019-01-18T10:58:02.961Z,87.92
2019-01-18T10:59:03.001Z,87.08
2019-01-18T11:00:02.561Z,87.02
2019-01-18T11:01:02.490Z,87.60
2019-01-18T11:02:07.199Z,87.71
2019-01-18T11:03:02.450Z,88.09
2019-01-18T11:04:03.488Z,87.11
2019-01-18T11:05:02.459Z,87.04
2019-01-18T11:06:02.456Z,86.83
2019-01-18T11:07:02.400Z,86.42
2019-01-18T11:08:02.391Z,86.63
2019-01-18T11:09:02.657Z,86.11
2019-01-18T11:10:02.534Z,86.63
2019-01-18T11:11:02.420Z,86.42
2019-01-18T11:12:02.405Z,86.42
2019-01-18T11:13:03.460Z,86.27
2019-01-18T11:14:02.334Z,86.59
2019-01-18T11:15:02.356Z,85.55
2019-01-18T11:16:02.384Z,84.34
2019-01-18T11:17:02.586Z,84.23
2019-01-18T11:18:02.448Z,84.23
2019-01-18T11:19:02.351Z,83.92
2019-01-18T11:20:02.610Z,84.34
2019-01-18T11:21:04.105Z,84.75
2019-01-18T11:22:02.281Z,84.72
2019-01-18T11:23:02.248Z,84.41
2019-01-18T11:24:02.583Z,84.92
2019-01-18T11:25:02.240Z,83.26
2019-01-18T11:26:02.226Z,83.16
2019-01-18T11:27:02.188Z,83.37
2019-01-18T11:28:02.254Z,82.43
2019-01-18T11:29:02.167Z,82.50
2019-01-18T11:30:02.230Z,82.91
2019-01-18T11:31:02.970Z,82.50
2019-01-18T11:32:02.156Z,81.46
2019-01-18T11:33:02.138Z,82.91
2019-01-18T11:34:02.158Z,82.29
2019-01-18T11:35:02.232Z,81.70
2019-01-18T11:36:02.136Z,81.46
2019-01-18T11:37:02.078Z,79.80
2019-01-18T11:38:02.615Z,80.63
2019-01-18T11:39:02.079Z,81.42
2019-01-18T11:40:02.715Z,81.63
2019-01-18T11:41:02.145Z,80.59
2019-01-18T11:42:05.301Z,80.80
2019-01-18T11:43:02.056Z,81.63
2019-01-18T11:44:02.065Z,80.38
2019-01-18T11:45:02.020Z,78.96
2019-01-18T11:46:02.004Z,80.42
2019-01-18T11:47:01.993Z,80.07
2019-01-18T11:48:03.731Z,80.59
2019-01-18T11:49:01.952Z,80.69
2019-01-18T11:50:02.855Z,80.21
2019-01-18T11:51:03.185Z,80.35
2019-01-18T11:52:02.844Z,80.73
2019-01-18T11:53:02.559Z,81.04
2019-01-18T11:54:02.991Z,80.00
2019-01-18T11:55:02.361Z,80.21
2019-01-18T11:56:04.087Z,79.27
2019-01-18T11:57:02.250Z,79.10
2019-01-18T11:58:04.114Z,79.24
2019-01-18T11:59:02.260Z,80.87
2019-01-18T12:00:02.251Z,80.04
2019-01-18T12:01:01.972Z,78.99
2019-01-18T12:02:05.240Z,79.38
2019-01-18T12:03:01.877Z,77.92
2019-01-18T12:04:02.142Z,78.86
2019-01-18T12:05:03.618Z,79.17
2019-01-18T12:06:03.734Z,78.13
2019-01-18T12:07:02.407Z,78.06
2019-01-18T12:08:02.149Z,77.75
2019-01-18T12:09:01.839Z,79.06
2019-01-18T12:10:02.740Z,79.27
2019-01-18T12:11:01.990Z,78.65
2019-01-18T12:12:03.738Z,79.06
2019-01-18T12:13:02.338Z,78.86
2019-01-18T12:14:01.682Z,78.68
2019-01-18T12:15:01.689Z,79.48
2019-01-18T12:16:01.766Z,78.13
2019-01-18T12:17:01.728Z,78.65
2019-01-18T12:18:01.645Z,78.65
2019-01-18T12:19:01.642Z,78.86
2019-01-18T12:20:01.647Z,77.92
2019-01-18T12:21:01.613Z,77.40
2019-01-18T12:22:01.631Z,78.51
2019-01-18T12:23:01.621Z,77.16
2019-01-18T12:24:01.583Z,76.78
2019-01-18T12:25:01.567Z,77.92
2019-01-18T12:26:01.563Z,77.20
2019-01-18T12:27:01.548Z,76.99
2019-01-18T12:28:01.520Z,76.78
2019-01-18T12:29:01.531Z,76.89
2019-01-18T12:30:01.512Z,76.43
2019-01-18T12:31:01.511Z,75.92
2019-01-18T12:32:01.494Z,76.43
2019-01-18T12:33:01.481Z,75.74
2019-01-18T12:34:01.458Z,76.43
2019-01-18T12:35:01.445Z,76.33
2019-01-18T12:36:01.467Z,76.12
2019-01-18T12:37:01.440Z,76.02
2019-01-18T12:38:01.425Z,75.19
2019-01-18T12:39:01.414Z,76.33
2019-01-18T12:40:01.413Z,76.02
2019-01-18T12:41:01.408Z,75.74
2019-01-18T12:43:10.569Z,77.72
2019-01-18T12:44:11.556Z,77.09
2019-01-18T12:45:11.539Z,77.20
2019-01-18T12:46:11.563Z,77.06
2019-01-18T12:47:12.367Z,75.98
2019-01-18T12:48:11.523Z,75.46
2019-01-18T12:49:11.507Z,74.74
2019-01-18T12:50:11.515Z,74.53
2019-01-18T12:51:11.502Z,74.26
2019-01-18T12:52:11.478Z,72.60
2019-01-18T12:53:11.462Z,73.70
2019-01-18T12:54:11.456Z,73.18
2019-01-18T12:55:11.430Z,74.84
2019-01-18T12:56:11.450Z,73.84
2019-01-18T12:57:11.425Z,74.84
2019-01-18T12:58:11.415Z,74.26
2019-01-18T12:59:11.399Z,74.11
2019-01-18T13:00:11.389Z,74.05
2019-01-18T13:01:11.381Z,72.56
2019-01-18T13:02:11.401Z,72.56
2019-01-18T13:03:11.361Z,72.36
2019-01-18T13:04:11.426Z,72.05
2019-01-18T13:05:11.336Z,71.25
2019-01-18T13:06:11.332Z,71.25
2019-01-18T13:07:11.348Z,70.70
2019-01-18T13:08:11.320Z,70.21
2019-01-18T13:09:11.325Z,71.01
2019-01-18T13:10:12.316Z,71.66
2019-01-18T13:11:11.298Z,72.28
2019-01-18T13:12:11.269Z,72.56
2019-01-18T13:13:11.261Z,73.08
2019-01-18T13:14:11.256Z,72.15
2019-01-18T13:15:11.846Z,72.15